• Join FlightAware (Why Join?)
  • Login
  • US Flag 
06:56AM EDT


 

Airport Tracker/Info


-or-


 

Live Flight TrackerFlight Track Log ✈ AWE140 ✈ 06-Jul-2013 ✈ KPHX - PANC

Flight Track Log - Related Links

Times and Time Zones

All times are in EDT time to prevent confusion due to time zone crossing. See the AWE140 flight status page for this flight to view local times or setup timezone preferences in your user account.

Time Position Orientation Groundspeed Altitude Reporting Facility
EDT Latitude Longitude Course Direction KTS MPH feet Rate Location/Type
10:52PM 33.4333 -112.0833 270° West 214 246 2,500  Level Phoenix TRACON
10:52PM 33.4331 -112.1286 270° West 227 261 3,000 1,440 Climbing Albuquerque Center
10:53PM 33.4631 -112.1983 297° West 264 304 4,900 1,860 Climbing Albuquerque Center
10:54PM 33.7645 -111.8563 15° North  Level FlightAware Approximate
10:54PM 33.5278 -112.1611 26° Northeast 269 310 6,800  Level Albuquerque Center
10:55PM 33.8757 -111.8097 20° North  Level FlightAware Approximate
10:55PM 33.5936 -112.1075 34° Northeast 284 327 8,800  Level Albuquerque Center
10:56PM 33.9865 -111.7612 20° North  Level FlightAware Approximate
10:56PM 33.6617 -112.0514 34° Northeast 295 339 10,400  Level Albuquerque Center
10:57PM 33.7381 -111.9881 35° Northeast 335 386 11,100 900 Climbing Albuquerque Center
10:58PM 33.8242 -111.9175 34° Northeast 370 426 12,300 1,320 Climbing Albuquerque Center
10:59PM 33.9144 -111.8433 34° Northeast 391 450 13,800 1,440 Climbing Albuquerque Center
11:00PM 34.0172 -111.7567 35° Northeast 411 473 15,300 1,680 Climbing Albuquerque Center
11:01PM 34.1194 -111.7028 24° Northeast 402 463 17,300 1,680 Climbing Albuquerque Center
11:02PM 34.2278 -111.6597 18° North 411 473 18,800 1,440 Climbing Albuquerque Center
11:04PM 34.3386 -111.6164 18° North 418 481 20,300 1,320 Climbing Albuquerque Center
11:05PM 34.4514 -111.5719 18° North 423 487 21,500 960 Climbing Albuquerque Center
11:06PM 34.5675 -111.5406 13° North 433 498 22,300 660 Climbing Albuquerque Center
11:07PM 34.7128 -111.5731 350° North 443 510 22,900 540 Climbing Albuquerque Center
11:08PM 34.8383 -111.6028 349° North 456 525 23,500 660 Climbing Albuquerque Center
11:09PM 34.9675 -111.6331 349° North 468 539 24,300 780 Climbing Albuquerque Center
11:10PM 35.0978 -111.6633 349° North 474 545 25,200 840 Climbing Albuquerque Center
11:11PM 35.2194 -111.7181 340° North 470 541 26,100 540 Climbing Albuquerque Center
11:12PM 35.3286 -111.7789 336° Northwest 469 540 26,300 180 Climbing Albuquerque Center
11:13PM 35.4772 -111.8647 335° Northwest 489 563 26,500 300 Climbing Albuquerque Center
11:14PM 35.6033 -111.9369 335° Northwest 500 575 27,000 480 Climbing Albuquerque Center
11:15PM 35.7294 -112.0108 335° Northwest 505 581 27,600 660 Climbing Albuquerque Center
11:16PM 35.8561 -112.0842 335° Northwest 508 585 28,400 720 Climbing Albuquerque Center
11:17PM 35.9817 -112.1564 335° Northwest 505 581 29,100 600 Climbing Albuquerque Center
11:18PM 36.1117 -112.2194 339° North 510 587 29,600 660 Climbing Los Angeles Center
11:19PM 36.2406 -112.2819 339° North 502 578 30,400 540 Climbing Los Angeles Center
11:20PM 36.3661 -112.3575 334° Northwest 502 578 30,800 540 Climbing Los Angeles Center
11:21PM 36.4856 -112.4461 329° Northwest 501 577 31,600 600 Climbing Los Angeles Center
11:22PM 36.6075 -112.5317 331° Northwest 502 578 32,100 540 Climbing Los Angeles Center
11:23PM 36.7511 -112.6353 330° Northwest 498 573 32,700 480 Climbing Los Angeles Center
11:24PM 36.8714 -112.7225 330° Northwest 499 574 33,200 480 Climbing Los Angeles Center
11:25PM 36.9911 -112.8094 330° Northwest 497 572 33,700 360 Climbing Los Angeles Center
11:26PM 37.1106 -112.8975 330° Northwest 496 571 34,000 120 Climbing Los Angeles Center
11:27PM 37.2306 -112.9850 330° Northwest 496 571 34,000  Level Los Angeles Center
11:28PM 37.3500 -113.0739 329° Northwest 494 568 34,000  Level Los Angeles Center
11:29PM 37.4208 -113.1275 329° Northwest 496 571 34,000  Level Salt Lake Center
11:30PM 37.5408 -113.2164 330° Northwest 494 568 34,000  Level Salt Lake Center
11:31PM 37.6600 -113.3058 329° Northwest 493 567 34,000  Level Salt Lake Center
11:32PM 37.7778 -113.3944 329° Northwest 491 565 34,000  Level Salt Lake Center
11:33PM 37.8964 -113.4822 330° Northwest 491 565 34,000  Level Salt Lake Center
11:34PM 38.0158 -113.5714 330° Northwest 495 570 34,000  Level Salt Lake Center
11:35PM 38.1347 -113.6603 330° Northwest 495 570 34,000  Level Salt Lake Center
11:36PM 38.2553 -113.7489 330° Northwest 498 573 34,000  Level Salt Lake Center
11:37PM 38.3722 -113.8378 329° Northwest 491 565 34,000  Level Salt Lake Center
11:38PM 38.5117 -113.9425 330° Northwest 486 559 34,000  Level Salt Lake Center
11:39PM 38.6275 -114.0331 329° Northwest 489 563 34,000  Level Salt Lake Center
11:40PM 38.7436 -114.1200 330° Northwest 485 558 34,000 -60 Level Salt Lake Center
11:41PM 38.8583 -114.2092 329° Northwest 485 558 33,900  Descending Salt Lake Center
11:42PM 38.9742 -114.3003 329° Northwest 487 560 34,000  Climbing Salt Lake Center
11:43PM 39.0922 -114.3908 329° Northwest 492 566 34,000  Level Salt Lake Center
11:44PM 39.2072 -114.4822 328° Northwest 487 560 34,000  Level Salt Lake Center
11:45PM 39.3169 -114.5678 329° Northwest 483 556 34,000  Level Salt Lake Center
11:46PM 39.4453 -114.6675 329° Northwest 482 555 34,000  Level Salt Lake Center
11:47PM 39.5564 -114.7531 329° Northwest 484 557 34,000  Level Salt Lake Center
11:48PM 39.6642 -114.8403 328° Northwest 480 552 34,000  Level Salt Lake Center
11:49PM 39.7928 -114.9419 329° Northwest 485 558 34,000  Level Salt Lake Center
11:50PM 39.9050 -115.0297 329° Northwest 490 564 34,000  Level Salt Lake Center
11:51PM 40.0325 -115.1328 328° Northwest 485 558 34,000  Level Salt Lake Center
11:52PM 40.1411 -115.2214 328° Northwest 482 555 34,000  Level Salt Lake Center
11:53PM 40.2525 -115.3097 329° Northwest 485 558 34,000  Level Salt Lake Center
11:54PM 40.3817 -115.4144 328° Northwest 491 565 34,000  Level Salt Lake Center
11:55PM 40.4911 -115.5044 328° Northwest 488 562 34,000  Level Salt Lake Center
11:56PM 40.5969 -115.5933 327° Northwest 481 554 34,000  Level Salt Lake Center
11:57PM 40.7242 -115.6975 328° Northwest 483 556 34,000  Level Salt Lake Center
11:58PM 40.8356 -115.7883 328° Northwest 489 563 34,000  Level Salt Lake Center
11:59PM 40.9450 -115.8783 328° Northwest 488 562 34,000  Level Salt Lake Center
12:00AM 41.0711 -115.9842 328° Northwest 484 557 34,000  Level Salt Lake Center
12:01AM 41.1800 -116.0744 328° Northwest 485 558 34,000  Level Salt Lake Center
12:02AM 41.3072 -116.1817 328° Northwest 485 558 34,000  Level Salt Lake Center
12:03AM 41.4139 -116.2736 327° Northwest 480 552 34,000  Level Salt Lake Center
12:04AM 41.5214 -116.3650 328° Northwest 481 554 34,000  Level Salt Lake Center
12:05AM 41.6475 -116.4719 328° Northwest 480 552 34,000  Level Salt Lake Center
12:06AM 41.7542 -116.5642 327° Northwest 479 551 34,000  Level Salt Lake Center
12:07AM 41.8622 -116.6547 328° Northwest 481 554 34,000  Level Salt Lake Center
12:08AM 41.9867 -116.7608 328° Northwest 475 547 34,000  Level Salt Lake Center
12:09AM 42.0931 -116.8531 327° Northwest 475 547 34,000  Level Salt Lake Center
12:10AM 42.1994 -116.9461 327° Northwest 476 548 34,000  Level Salt Lake Center
12:11AM 42.3206 -117.0519 327° Northwest 473 544 34,000 -60 Level Salt Lake Center
12:12AM 42.4256 -117.1456 327° Northwest 473 544 33,900  Descending Salt Lake Center
12:13AM 42.5503 -117.2536 327° Northwest 473 544 34,000  Climbing Salt Lake Center
12:14AM 42.6542 -117.3464 327° Northwest 467 537 34,000  Level Salt Lake Center
12:15AM 42.7603 -117.4411 327° Northwest 474 545 34,000  Level Salt Lake Center
12:16AM 42.8836 -117.5497 327° Northwest 471 542 34,000  Level Salt Lake Center
12:17AM 42.9881 -117.6444 326° Northwest 468 539 34,000  Level Salt Lake Center
12:18AM 43.0931 -117.7397 326° Northwest 471 542 34,000  Level Salt Lake Center
12:19AM 43.2142 -117.8489 327° Northwest 467 537 34,000  Level Salt Lake Center
12:20AM 43.3189 -117.9433 327° Northwest 470 541 34,000  Level Salt Lake Center
12:21AM 43.4236 -118.0381 327° Northwest 470 541 34,000  Level Salt Lake Center
12:22AM 43.5450 -118.1503 326° Northwest 470 541 34,000  Level Salt Lake Center
12:23AM 43.6494 -118.2467 326° Northwest 470 541 34,000  Level Salt Lake Center
12:24AM 43.7497 -118.3372 327° Northwest 470 541 34,000  Level Salt Lake Center
12:25AM 43.8356 -118.4158 327° Northwest 465 535 34,000  Level Salt Lake Center
12:26AM 43.9247 -118.5011 325° Northwest 463 533 34,000  Level Seattle Center
12:27AM 44.0281 -118.5978 326° Northwest 465 535 34,000  Level Seattle Center
12:28AM 44.1319 -118.6961 326° Northwest 458 527 34,000  Level Seattle Center
12:28AM 44.1761 -118.7350 328° Northwest 461 531 34,000  Level Salt Lake Center
12:29AM 44.3025 -118.8547 326° Northwest 459 528 34,000  Level Salt Lake Center
12:30AM 44.4092 -118.9553 326° Northwest 462 532 34,000  Level Salt Lake Center
12:31AM 44.5153 -119.0553 326° Northwest 462 532 34,000  Level Salt Lake Center
12:32AM 44.6189 -119.1561 325° Northwest 457 526 34,000  Level Salt Lake Center
12:33AM 44.7250 -119.2575 326° Northwest 462 532 34,000  Level Salt Lake Center
12:34AM 44.8294 -119.3575 326° Northwest 459 528 34,000  Level Salt Lake Center
12:36AM 44.9344 -119.4597 325° Northwest 462 532 34,000  Level Salt Lake Center
12:37AM 45.0389 -119.5608 326° Northwest 463 533 34,000  Level Salt Lake Center
12:38AM 45.1422 -119.6642 325° Northwest 461 531 34,000  Level Salt Lake Center
12:39AM 45.3092 -119.8272 326° Northwest 462 532 34,000  Level Seattle Center
12:40AM 45.4144 -119.9314 325° Northwest 465 535 34,000  Level Seattle Center
12:41AM 45.5183 -120.0344 325° Northwest 460 529 34,000  Level Seattle Center
12:42AM 45.6233 -120.1397 325° Northwest 462 532 34,000  Level Seattle Center
12:43AM 45.7283 -120.2475 324° Northwest 465 535 34,000  Level Seattle Center
12:44AM 45.8328 -120.3525 325° Northwest 464 534 34,000  Level Seattle Center
12:45AM 45.9369 -120.4572 325° Northwest 458 527 34,000  Level Seattle Center
12:46AM 46.0425 -120.5644 325° Northwest 464 534 34,000  Level Seattle Center
12:47AM 46.1453 -120.6694 325° Northwest 456 525 34,000  Level Seattle Center
12:48AM 46.2494 -120.7764 325° Northwest 459 528 34,000  Level Seattle Center
12:49AM 46.3531 -120.8822 325° Northwest 459 528 34,000  Level Seattle Center
12:50AM 46.4558 -120.9900 324° Northwest 457 526 34,000  Level Seattle Center
12:51AM 46.5561 -121.0967 324° Northwest 451 519 34,000  Level Seattle Center
12:52AM 46.6589 -121.2033 325° Northwest 455 524 34,000  Level Seattle Center
12:53AM 46.7617 -121.3100 325° Northwest 454 522 34,000  Level Seattle Center
12:54AM 46.8614 -121.4158 324° Northwest 447 514 34,000  Level Seattle Center
12:55AM 46.9603 -121.5197 324° Northwest 441 507 34,000  Level Seattle Center
12:56AM 47.0597 -121.6292 323° Northwest 442 509 34,000  Level Seattle Center
12:57AM 47.1764 -121.7547 324° Northwest 439 505 34,000  Level Seattle Center
12:58AM 47.2742 -121.8597 324° Northwest 440 506 34,000  Level Seattle Center
12:59AM 47.3736 -121.9653 324° Northwest 445 512 34,000  Level Seattle Center
01:00AM 47.4714 -122.0717 324° Northwest 444 511 34,000  Level Seattle Center
01:01AM 47.5689 -122.1764 324° Northwest 442 509 34,000  Level Seattle Center
01:02AM 47.6611 -122.2739 325° Northwest 437 503 34,000  Level Seattle Center
01:03AM 47.7664 -122.3950 322° Northwest 448 516 34,000  Level Seattle Center
01:04AM 47.8753 -122.5153 323° Northwest 442 509 34,000  Level Seattle Center
01:05AM 47.9711 -122.6231 323° Northwest 438 504 34,000  Level Seattle Center
01:06AM 48.0683 -122.7314 323° Northwest 441 507 34,000  Level Seattle Center
01:07AM 48.1653 -122.8403 323° Northwest 441 507 34,000  Level Seattle Center
01:08AM 48.2611 -122.9497 323° Northwest 439 505 34,000  Level Seattle Center
01:09AM 48.3569 -123.0581 323° Northwest 437 503 34,000  Level Seattle Center
01:10AM 48.4167 -123.1500 314° West 440 506 34,000  Level Vancouver Center
01:11AM 48.5167 -123.2500 326° Northwest 430 495 34,000  Level Vancouver Center
01:12AM 48.6000 -123.3667 317° Northwest 430 495 34,000  Level Vancouver Center
01:13AM 48.7000 -123.4667 327° Northwest 440 506 34,000  Level Vancouver Center
01:14AM 48.8000 -123.6000 319° Northwest 440 506 34,000  Level Vancouver Center
01:15AM 48.9000 -123.7000 327° Northwest 440 506 34,000  Level Vancouver Center
01:16AM 49.0000 -123.8167 323° Northwest 440 506 34,000  Level Vancouver Center
01:17AM 49.1000 -123.9333 323° Northwest 440 506 34,000  Level Vancouver Center
01:18AM 49.2000 -124.0333 327° Northwest 440 506 34,000  Level Vancouver Center
01:19AM 49.3000 -124.1333 327° Northwest 440 506 34,000  Level Vancouver Center
01:20AM 49.3833 -124.2667 314° West 440 506 34,000  Level Vancouver Center
01:21AM 49.5000 -124.3667 331° Northwest 440 506 34,000  Level Vancouver Center
01:22AM 49.5833 -124.4667 322° Northwest 440 506 34,000  Level Vancouver Center
01:23AM 49.6833 -124.5667 327° Northwest 440 506 34,000  Level Vancouver Center
01:24AM 49.7833 -124.7000 319° Northwest 440 506 34,000  Level Vancouver Center
01:25AM 49.8833 -124.8167 323° Northwest 440 506 34,000  Level Vancouver Center
01:26AM 49.9833 -124.9167 327° Northwest 440 506 34,000  Level Vancouver Center
01:27AM 50.0833 -125.0500 319° Northwest 440 506 34,000  Level Vancouver Center
01:28AM 50.1833 -125.1500 327° Northwest 440 506 34,000  Level Vancouver Center
01:29AM 50.2833 -125.2667 323° Northwest 440 506 34,000  Level Vancouver Center
01:30AM 50.3833 -125.4000 320° Northwest 440 506 34,000  Level Vancouver Center
01:31AM 50.4833 -125.5000 328° Northwest 440 506 34,000  Level Vancouver Center
01:32AM 50.5667 -125.6167 318° Northwest 440 506 34,000  Level Vancouver Center
01:33AM 50.6667 -125.7500 320° Northwest 450 518 34,000  Level Vancouver Center
01:34AM 50.7667 -125.8500 328° Northwest 450 518 34,000  Level Vancouver Center
01:35AM 50.8667 -126.0000 317° Northwest 450 518 34,000  Level Vancouver Center
01:36AM 50.9667 -126.1000 328° Northwest 450 518 34,000  Level Vancouver Center
01:37AM 51.0667 -126.2500 317° Northwest 450 518 34,000  Level Vancouver Center
01:38AM 51.1667 -126.3500 328° Northwest 450 518 34,000  Level Vancouver Center
01:39AM 51.2667 -126.4667 324° Northwest 450 518 34,000  Level Vancouver Center
01:40AM 51.3667 -126.6000 320° Northwest 450 518 34,000  Level Vancouver Center
01:41AM 51.4500 -126.7167 319° Northwest 450 518 34,000  Level Vancouver Center
01:42AM 51.5500 -126.8667 317° Northwest 450 518 34,000  Level Vancouver Center
01:43AM 51.6500 -126.9667 328° Northwest 450 518 34,000  Level Vancouver Center
01:44AM 51.7500 -127.1167 317° Northwest 450 518 34,000  Level Vancouver Center
01:45AM 51.8500 -127.2333 324° Northwest 460 529 34,000  Level Vancouver Center
01:46AM 51.9500 -127.3667 321° Northwest 460 529 34,000  Level Vancouver Center
01:47AM 52.0500 -127.4833 324° Northwest 460 529 34,000  Level Vancouver Center
01:48AM 52.1500 -127.6333 317° Northwest 460 529 34,000  Level Vancouver Center
01:49AM 52.2500 -127.7500 324° Northwest 460 529 34,000  Level Vancouver Center
01:50AM 52.3500 -127.9000 318° Northwest 460 529 34,000  Level Vancouver Center
01:51AM 52.4500 -128.0167 325° Northwest 460 529 34,000  Level Vancouver Center
01:52AM 52.5500 -128.1667 318° Northwest 460 529 34,000  Level Vancouver Center
01:53AM 52.6500 -128.2833 325° Northwest 470 541 34,000  Level Vancouver Center
01:54AM 52.7500 -128.4333 318° Northwest 470 541 34,000  Level Vancouver Center
01:55AM 52.8500 -128.5500 325° Northwest 470 541 34,000  Level Vancouver Center
01:56AM 52.9500 -128.7000 318° Northwest 470 541 34,000  Level Vancouver Center
01:57AM 53.0333 -128.8500 313° West 470 541 34,000  Level Vancouver Center
01:58AM 53.1500 -128.9833 326° Northwest 470 541 34,000  Level Vancouver Center
01:59AM 53.2500 -129.1333 318° Northwest 470 541 34,000  Level Vancouver Center
02:00AM 53.3333 -129.2833 313° West 470 541 34,000  Level Vancouver Center
02:01AM 53.4333 -129.4000 325° Northwest 470 541 34,000  Level Vancouver Center
02:02AM 53.5500 -129.5667 320° Northwest 470 541 34,000  Level Vancouver Center
02:03AM 53.6333 -129.6833 320° Northwest 480 552 34,000  Level Vancouver Center
02:04AM 53.7500 -129.8333 323° Northwest 460 529 34,000  Level Vancouver Center
02:05AM 53.8333 -129.9667 317° Northwest 470 541 34,000  Level Vancouver Center
02:06AM 53.9333 -130.1167 319° Northwest 470 541 34,000  Level Vancouver Center
02:07AM 54.0333 -130.2833 316° Northwest 470 541 34,000  Level Vancouver Center
02:08AM 54.1333 -130.4167 322° Northwest 460 529 34,000  Level Vancouver Center
02:09AM 54.2333 -130.5667 319° Northwest 470 541 34,000  Level Vancouver Center
02:10AM 54.3167 -130.7000 317° Northwest 470 541 34,000  Level Vancouver Center
02:11AM 54.4167 -130.8500 319° Northwest 460 529 34,000  Level Vancouver Center
02:12AM 54.5167 -130.9833 322° Northwest 460 529 34,000  Level Vancouver Center
02:13AM 54.6167 -131.1500 316° Northwest 460 529 34,000  Level Vancouver Center
02:14AM 54.6833 -131.3167 305° West 460 529 34,000  Level Vancouver Center
02:15AM 54.7833 -131.4667 319° Northwest 460 529 34,000  Level Vancouver Center
02:16AM 54.8333 -131.5500 316° Northwest 460 529 34,000  Level Anchorage Center
02:17AM 54.9167 -131.7000 314° West 460 529 34,000  Level Anchorage Center
02:18AM 55.0167 -131.8667 316° Northwest 460 529 34,000  Level Anchorage Center
02:19AM 55.1000 -132.0333 311° West 460 529 34,000  Level Anchorage Center
02:20AM 55.1833 -132.2000 311° West 460 529 34,000  Level Anchorage Center
02:21AM 55.2667 -132.3833 309° West 460 529 34,000  Level Anchorage Center
02:23AM 55.4333 -132.6833 314° West 450 518 34,000  Level Anchorage Center
02:25AM 55.6000 -133.0167 312° West 460 529 34,000  Level Anchorage Center
02:26AM 55.6833 -133.1833 312° West 450 518 34,000  Level Anchorage Center
02:27AM 55.7667 -133.3500 312° West 460 529 34,000  Level Anchorage Center
02:29AM 55.9333 -133.6833 312° West 460 529 34,000  Level Anchorage Center
02:30AM 56.0167 -133.8667 309° West 450 518 34,000  Level Anchorage Center
02:31AM 56.0833 -134.0333 306° West 450 518 34,000  Level Anchorage Center
02:32AM 56.1667 -134.2000 312° West 450 518 34,000  Level Anchorage Center
02:33AM 56.2500 -134.3667 312° West 440 506 34,000  Level Anchorage Center
02:34AM 56.3333 -134.5333 312° West 440 506 34,000  Level Anchorage Center
02:35AM 56.4000 -134.7000 306° West 440 506 34,000  Level Anchorage Center
02:37AM 56.5833 -135.1500 307° West 440 506 34,000  Level Vancouver Center
02:38AM 56.6333 -135.2167 324° Northwest 430 495 34,000  Level Anchorage Center
02:39AM 56.7167 -135.3833 312° West 420 483 34,000  Level Anchorage Center
02:40AM 56.8000 -135.5500 312° West 440 506 34,000  Level Anchorage Center
02:41AM 56.8667 -135.7333 304° West 440 506 34,000  Level Anchorage Center
02:42AM 56.9500 -135.9000 313° West 430 495 34,000  Level Anchorage Center
02:43AM 57.0167 -136.0833 304° West 430 495 34,000  Level Anchorage Center
02:44AM 57.1000 -136.2500 313° West 420 483 34,000  Level Anchorage Center
02:45AM 57.1667 -136.4167 306° West 420 483 34,000  Level Anchorage Center
02:46AM 57.2667 -136.6833 305° West 430 495 34,000  Level Vancouver Center
02:47AM 57.3333 -136.8667 304° West 430 495 34,000  Level Vancouver Center
02:48AM 57.4167 -137.0500 310° West 430 495 34,000  Level Vancouver Center
02:49AM 57.4667 -137.1000 332° Northwest 420 483 34,000  Level Anchorage Center
02:50AM 57.5333 -137.2833 304° West 410 472 34,000  Level Anchorage Center
02:51AM 57.6000 -137.4500 307° West 420 483 34,000  Level Anchorage Center
02:52AM 57.6833 -137.6167 313° West 420 483 34,000  Level Anchorage Center
02:53AM 57.7500 -137.8000 304° West 420 483 34,000  Level Anchorage Center
02:54AM 57.8000 -137.9333 305° West 430 495 34,000  Level Anchorage Center
02:56AM 57.9667 -138.3333 308° West 420 483 34,000  Level Anchorage Center
02:57AM 58.0333 -138.5000 307° West 430 495 34,000  Level Anchorage Center
02:58AM 58.1000 -138.6833 305° West 420 483 34,000  Level Anchorage Center
02:59AM 58.1833 -138.8667 311° West 420 483 34,000  Level Anchorage Center
03:00AM 58.2500 -139.0500 305° West 430 495 34,000  Level Anchorage Center
03:01AM 58.3167 -139.2333 305° West 430 495 34,000  Level Anchorage Center
03:02AM 58.3833 -139.4167 305° West 420 483 34,000  Level Anchorage Center
03:03AM 58.4500 -139.6000 305° West 410 472 34,000  Level Anchorage Center
03:04AM 58.5167 -139.7667 307° West 400 460 34,000  Level Anchorage Center
03:05AM 58.5833 -139.9500 305° West 400 460 34,000  Level Anchorage Center
03:06AM 58.6500 -140.1167 308° West 400 460 34,000  Level Anchorage Center
03:07AM 58.7167 -140.3000 305° West 400 460 34,000  Level Anchorage Center
03:08AM 58.7833 -140.4667 308° West 410 472 34,000  Level Anchorage Center
03:09AM 58.8333 -140.6667 296° West 410 472 34,000  Level Anchorage Center
03:10AM 58.9000 -140.8500 305° West 400 460 34,000  Level Anchorage Center
03:11AM 58.9500 -141.0333 298° West 400 460 34,000  Level Anchorage Center
03:12AM 59.0000 -141.2333 296° West 400 460 34,000  Level Anchorage Center
03:13AM 59.0667 -141.4167 305° West 400 460 34,000  Level Anchorage Center
03:14AM 59.1167 -141.6167 296° West 410 472 34,000  Level Anchorage Center
03:15AM 59.1667 -141.8000 298° West 400 460 34,000  Level Anchorage Center
03:16AM 59.2167 -142.0000 296° West 400 460 34,000  Level Anchorage Center
03:17AM 59.2833 -142.1833 305° West 400 460 34,000  Level Anchorage Center
03:18AM 59.3333 -142.3833 296° West 410 472 34,000  Level Anchorage Center
03:19AM 59.3833 -142.5833 296° West 400 460 34,000  Level Anchorage Center
03:20AM 59.4333 -142.7667 298° West 400 460 34,000  Level Anchorage Center
03:21AM 59.5000 -142.9833 301° West 410 472 34,000  Level Anchorage Center
03:22AM 59.5500 -143.1833 296° West 410 472 34,000  Level Anchorage Center
03:23AM 59.6000 -143.3833 296° West 410 472 34,000  Level Anchorage Center
03:24AM 59.6667 -143.5833 303° West 410 472 34,000  Level Anchorage Center
03:25AM 59.7167 -143.7833 296° West 400 460 34,000  Level Anchorage Center
03:26AM 59.7667 -143.9833 296° West 410 472 34,000  Level Anchorage Center
03:28AM 59.8667 -144.4000 296° West 410 472 34,000  Level Anchorage Center
03:29AM 59.9167 -144.6000 297° West 410 472 34,000  Level Anchorage Center
03:31AM 60.0333 -145.0167 299° West 420 483 34,000  Level Anchorage Center
03:32AM 60.0833 -145.2167 297° West 420 483 34,000  Level Anchorage Center
03:33AM 60.1333 -145.4333 295° West 420 483 34,000  Level Anchorage Center
03:34AM 60.1833 -145.6500 295° West 430 495 34,000  Level Anchorage Center
03:35AM 60.2333 -145.8667 295° West 430 495 34,000  Level Anchorage Center
03:37AM 60.3333 -146.3000 295° West 430 495 34,000  Level Anchorage Center
03:38AM 60.3833 -146.5167 295° West 430 495 34,000  Level Anchorage Center
03:40AM 60.4833 -146.9667 294° West 430 495 34,000  Level Anchorage Center
03:41AM 60.5333 -147.2000 294° West 440 506 34,000  Level Anchorage Center
03:42AM 60.6000 -147.4500 299° West 450 518 34,000  Level Anchorage Center
03:43AM 60.6500 -147.7000 292° West 440 506 34,000 -660 Level Anchorage Center
03:44AM 60.7000 -147.9167 295° West 450 518 32,700 -2,700 Descending Anchorage Center
03:45AM 60.7500 -148.1500 294° West 460 529 28,600 -3,660 Descending Anchorage Center
03:46AM 60.8000 -148.4000 292° West 470 541 25,400 -3,360 Descending Anchorage Center
03:47AM 60.8500 -148.6500 292° West 470 541 21,900 -3,540 Descending Anchorage Center
03:49AM 60.9071 -148.9513 293° West  Level FlightAware Approximate
03:56AM 61.1667 -149.9833 270° West  Level FlightAware Approximate
03:57AM 61.1741 -149.9982 270° West  Level Estimated
03:58AM 61.1741 -149.9982 270° West  Level Estimated
03:59AM 61.1741 -149.9982 270° West  Level Estimated
04:00AM 61.1741 -149.9982 270° West  Level Estimated
04:01AM 61.1741 -149.9982 270° West  Level Estimated
04:02AM 61.1741 -149.9982 270° West  Level Estimated
04:03AM 61.1741 -149.9982 270° West  Level Estimated